Terminal Aerodrome Forecast
Issued by NWS Charleston, WV

Home | Current Version | Previous Version | Text Only | Print | Product List | Glossary On
Versions: 1 2 3 4 5 6 7 8 9 10 11 12 13 14 15 16 17 18 19 20 21 22 23
893
FTUS41 KRLX 210923 AAA
TAFCRW
TAF AMD
KCRW 210923Z 2109/2206 00000KT 4SM BR SCT001 BKN250
     FM211100 00000KT 2SM BR BKN001
     FM211300 15003KT P6SM SCT015 BKN250
     FM211400 16004KT P6SM BKN025
     FM211600 19005KT P6SM BKN040
     FM220000 17002KT P6SM BKN070=

USA.gov is the U.S. government's official web portal to all federal, state and local government web resources and services.